sensor_id;sensor_type;location;lat;lon;timestamp;temperature;humidity
25170;DHT22;13129;48.012;10.352;2023-09-19T03:34:26;14.70;99.90
25170;DHT22;13129;48.012;10.352;2023-09-19T03:36:52;14.70;99.90
25170;DHT22;13129;48.012;10.352;2023-09-19T03:39:17;14.70;99.90
25170;DHT22;13129;48.012;10.352;2023-09-19T03:41:43;14.70;99.90
25170;DHT22;13129;48.012;10.352;2023-09-19T03:46:35;14.60;99.90
25170;DHT22;13129;48.012;10.352;2023-09-19T03:49:01;14.60;99.90
25170;DHT22;13129;48.012;10.352;2023-09-19T03:51:28;14.60;99.90
25170;DHT22;13129;48.012;10.352;2023-09-19T03:53:53;14.70;99.90
25170;DHT22;13129;48.012;10.352;2023-09-19T03:56:19;14.70;99.90
25170;DHT22;13129;48.012;10.352;2023-09-19T03:58:44;14.70;99.90
25170;DHT22;13129;48.012;10.352;2023-09-19T04:01:10;14.70;99.90
25170;DHT22;13129;48.012;10.352;2023-09-19T04:03:35;14.70;99.90
25170;DHT22;13129;48.012;10.352;2023-09-19T04:06:15;14.70;99.90
25170;DHT22;13129;48.012;10.352;2023-09-19T04:08:42;14.60;99.90
25170;DHT22;13129;48.012;10.352;2023-09-19T04:11:08;14.60;99.90
25170;DHT22;13129;48.012;10.352;2023-09-19T04:13:33;14.50;99.90
25170;DHT22;13129;48.012;10.352;2023-09-19T04:15:59;14.40;99.90
25170;DHT22;13129;48.012;10.352;2023-09-19T04:18:25;14.40;99.90
25170;DHT22;13129;48.012;10.352;2023-09-19T04:20:51;14.40;99.90
25170;DHT22;13129;48.012;10.352;2023-09-19T04:23:17;14.40;99.90
25170;DHT22;13129;48.012;10.352;2023-09-19T04:25:43;14.40;99.90
25170;DHT22;13129;48.012;10.352;2023-09-19T04:28:09;14.40;99.90
25170;DHT22;13129;48.012;10.352;2023-09-19T04:30:38;14.50;99.90
25170;DHT22;13129;48.012;10.352;2023-09-19T04:33:06;14.50;99.90
25170;DHT22;13129;48.012;10.352;2023-09-19T04:35:32;14.60;99.90
25170;DHT22;13129;48.012;10.352;2023-09-19T04:37:57;14.60;99.90
25170;DHT22;13129;48.012;10.352;2023-09-19T04:40:23;14.60;99.90
25170;DHT22;13129;48.012;10.352;2023-09-19T04:42:55;14.70;99.90
25170;DHT22;13129;48.012;10.352;2023-09-19T04:45:22;14.70;99.90
25170;DHT22;13129;48.012;10.352;2023-09-19T04:47:48;14.70;99.90
25170;DHT22;13129;48.012;10.352;2023-09-19T04:50:13;14.70;99.90
25170;DHT22;13129;48.012;10.352;2023-09-19T04:52:41;14.70;99.90
25170;DHT22;13129;48.012;10.352;2023-09-19T04:55:11;14.70;99.90
25170;DHT22;13129;48.012;10.352;2023-09-19T04:57:42;14.60;99.90
25170;DHT22;13129;48.012;10.352;2023-09-19T05:00:08;14.70;99.90
25170;DHT22;13129;48.012;10.352;2023-09-19T05:02:38;14.60;99.90
25170;DHT22;13129;48.012;10.352;2023-09-19T05:05:05;14.60;99.90
25170;DHT22;13129;48.012;10.352;2023-09-19T05:07:31;14.60;99.90
25170;DHT22;13129;48.012;10.352;2023-09-19T05:09:57;14.60;99.90
25170;DHT22;13129;48.012;10.352;2023-09-19T05:12:22;14.60;99.90
25170;DHT22;13129;48.012;10.352;2023-09-19T05:14:48;14.80;99.90
25170;DHT22;13129;48.012;10.352;2023-09-19T05:17:13;14.70;99.90
25170;DHT22;13129;48.012;10.352;2023-09-19T05:19:42;14.70;99.90
25170;DHT22;13129;48.012;10.352;2023-09-19T05:22:08;14.80;99.90
25170;DHT22;13129;48.012;10.352;2023-09-19T05:24:33;14.80;99.90
25170;DHT22;13129;48.012;10.352;2023-09-19T05:26:59;14.90;99.90
25170;DHT22;13129;48.012;10.352;2023-09-19T05:29:25;14.90;99.90
25170;DHT22;13129;48.012;10.352;2023-09-19T05:31:50;14.90;99.90
25170;DHT22;13129;48.012;10.352;2023-09-19T05:34:17;15.00;99.90
25170;DHT22;13129;48.012;10.352;2023-09-19T05:36:43;15.00;99.90
25170;DHT22;13129;48.012;10.352;2023-09-19T05:39:08;15.00;99.90
25170;DHT22;13129;48.012;10.352;2023-09-19T05:41:35;15.10;99.90
25170;DHT22;13129;48.012;10.352;2023-09-19T05:44:02;15.00;99.90
25170;DHT22;13129;48.012;10.352;2023-09-19T05:46:28;15.10;99.90
25170;DHT22;13129;48.012;10.352;2023-09-19T05:48:55;15.10;99.90
25170;DHT22;13129;48.012;10.352;2023-09-19T05:51:22;15.20;99.90
25170;DHT22;13129;48.012;10.352;2023-09-19T05:53:48;15.20;99.90
25170;DHT22;13129;48.012;10.352;2023-09-19T05:56:14;15.20;99.90
25170;DHT22;13129;48.012;10.352;2023-09-19T05:58:40;15.20;99.90
25170;DHT22;13129;48.012;10.352;2023-09-19T06:01:09;15.30;99.90
25170;DHT22;13129;48.012;10.352;2023-09-19T06:03:35;15.40;99.90
25170;DHT22;13129;48.012;10.352;2023-09-19T06:06:02;15.40;99.90
25170;DHT22;13129;48.012;10.352;2023-09-19T06:08:27;15.50;99.90
25170;DHT22;13129;48.012;10.352;2023-09-19T06:10:54;15.60;99.90
25170;DHT22;13129;48.012;10.352;2023-09-19T06:13:20;15.70;99.90
25170;DHT22;13129;48.012;10.352;2023-09-19T06:15:46;15.80;99.90
25170;DHT22;13129;48.012;10.352;2023-09-19T06:18:15;15.90;99.90
25170;DHT22;13129;48.012;10.352;2023-09-19T06:20:48;16.00;99.90
25170;DHT22;13129;48.012;10.352;2023-09-19T06:23:16;16.00;99.90
25170;DHT22;13129;48.012;10.352;2023-09-19T06:25:43;16.00;99.90
25170;DHT22;13129;48.012;10.352;2023-09-19T06:28:09;16.00;99.90
25170;DHT22;13129;48.012;10.352;2023-09-19T06:30:37;16.10;99.90
25170;DHT22;13129;48.012;10.352;2023-09-19T06:33:05;16.20;99.90
25170;DHT22;13129;48.012;10.352;2023-09-19T06:35:33;16.20;99.90
25170;DHT22;13129;48.012;10.352;2023-09-19T06:38:01;16.30;99.90
25170;DHT22;13129;48.012;10.352;2023-09-19T06:40:28;16.30;99.90
25170;DHT22;13129;48.012;10.352;2023-09-19T06:42:56;16.30;99.90
25170;DHT22;13129;48.012;10.352;2023-09-19T06:45:22;16.40;99.90
25170;DHT22;13129;48.012;10.352;2023-09-19T06:47:50;16.40;99.90
25170;DHT22;13129;48.012;10.352;2023-09-19T06:50:21;16.60;99.90
25170;DHT22;13129;48.012;10.352;2023-09-19T06:52:49;16.90;99.90
25170;DHT22;13129;48.012;10.352;2023-09-19T06:55:21;17.30;99.90
25170;DHT22;13129;48.012;10.352;2023-09-19T06:57:49;17.40;99.90
25170;DHT22;13129;48.012;10.352;2023-09-19T07:00:15;17.50;99.90
25170;DHT22;13129;48.012;10.352;2023-09-19T07:02:44;17.60;99.90
25170;DHT22;13129;48.012;10.352;2023-09-19T07:05:09;17.60;99.90
25170;DHT22;13129;48.012;10.352;2023-09-19T07:07:35;18.30;99.90
25170;DHT22;13129;48.012;10.352;2023-09-19T07:10:01;20.10;99.90
25170;DHT22;13129;48.012;10.352;2023-09-19T07:12:27;22.40;99.90
25170;DHT22;13129;48.012;10.352;2023-09-19T07:14:53;23.80;99.90
25170;DHT22;13129;48.012;10.352;2023-09-19T07:17:18;23.90;99.90
25170;DHT22;13129;48.012;10.352;2023-09-19T07:19:45;23.60;99.90
25170;DHT22;13129;48.012;10.352;2023-09-19T07:22:10;23.20;99.90
25170;DHT22;13129;48.012;10.352;2023-09-19T07:24:36;23.80;99.90
25170;DHT22;13129;48.012;10.352;2023-09-19T07:27:02;25.10;99.90
25170;DHT22;13129;48.012;10.352;2023-09-19T07:29:28;25.50;99.90
25170;DHT22;13129;48.012;10.352;2023-09-19T07:31:53;24.80;99.90
25170;DHT22;13129;48.012;10.352;2023-09-19T07:34:19;23.90;99.90
25170;DHT22;13129;48.012;10.352;2023-09-19T07:36:47;22.90;99.90
25170;DHT22;13129;48.012;10.352;2023-09-19T07:39:13;21.90;99.90
25170;DHT22;13129;48.012;10.352;2023-09-19T07:41:39;21.10;99.90
25170;DHT22;13129;48.012;10.352;2023-09-19T07:44:04;20.50;99.90
25170;DHT22;13129;48.012;10.352;2023-09-19T07:46:30;20.20;99.90
25170;DHT22;13129;48.012;10.352;2023-09-19T07:48:57;20.50;99.90
25170;DHT22;13129;48.012;10.352;2023-09-19T07:51:23;21.00;99.90
25170;DHT22;13129;48.012;10.352;2023-09-19T07:53:48;22.00;99.90
25170;DHT22;13129;48.012;10.352;2023-09-19T07:56:14;23.40;99.90
25170;DHT22;13129;48.012;10.352;2023-09-19T07:58:40;24.70;99.90
25170;DHT22;13129;48.012;10.352;2023-09-19T08:01:10;25.80;99.90
25170;DHT22;13129;48.012;10.352;2023-09-19T08:03:36;26.50;99.20
25170;DHT22;13129;48.012;10.352;2023-09-19T08:06:07;27.20;96.10
25170;DHT22;13129;48.012;10.352;2023-09-19T08:08:33;28.10;94.10
25170;DHT22;13129;48.012;10.352;2023-09-19T08:11:05;29.30;91.50
25170;DHT22;13129;48.012;10.352;2023-09-19T08:13:38;30.50;86.60
25170;DHT22;13129;48.012;10.352;2023-09-19T08:16:10;30.80;83.10
25170;DHT22;13129;48.012;10.352;2023-09-19T08:18:36;30.90;78.80
25170;DHT22;13129;48.012;10.352;2023-09-19T08:21:05;30.90;78.30
25170;DHT22;13129;48.012;10.352;2023-09-19T08:23:33;30.20;78.00
25170;DHT22;13129;48.012;10.352;2023-09-19T08:25:59;29.60;78.70
25170;DHT22;13129;48.012;10.352;2023-09-19T08:28:28;29.30;78.60
25170;DHT22;13129;48.012;10.352;2023-09-19T08:30:55;29.20;78.80
25170;DHT22;13129;48.012;10.352;2023-09-19T08:33:21;29.20;77.30
25170;DHT22;13129;48.012;10.352;2023-09-19T08:35:46;29.10;76.50
25170;DHT22;13129;48.012;10.352;2023-09-19T08:38:12;28.70;75.30
25170;DHT22;13129;48.012;10.352;2023-09-19T08:40:40;28.50;76.10
25170;DHT22;13129;48.012;10.352;2023-09-19T08:43:07;27.90;77.10
25170;DHT22;13129;48.012;10.352;2023-09-19T08:45:33;27.60;78.10
25170;DHT22;13129;48.012;10.352;2023-09-19T08:48:23;28.10;78.40
25170;DHT22;13129;48.012;10.352;2023-09-19T08:51:18;29.10;77.00
25170;DHT22;13129;48.012;10.352;2023-09-19T08:53:52;29.60;73.30
25170;DHT22;13129;48.012;10.352;2023-09-19T08:56:25;29.30;72.90
25170;DHT22;13129;48.012;10.352;2023-09-19T08:58:57;28.80;75.20
25170;DHT22;13129;48.012;10.352;2023-09-19T09:01:27;29.30;73.30
25170;DHT22;13129;48.012;10.352;2023-09-19T09:03:54;28.90;73.40
25170;DHT22;13129;48.012;10.352;2023-09-19T09:06:21;28.30;74.00
25170;DHT22;13129;48.012;10.352;2023-09-19T09:08:47;27.80;75.80
25170;DHT22;13129;48.012;10.352;2023-09-19T09:11:14;27.90;76.10
25170;DHT22;13129;48.012;10.352;2023-09-19T09:13:40;27.60;75.00
25170;DHT22;13129;48.012;10.352;2023-09-19T09:16:07;26.60;76.20
25170;DHT22;13129;48.012;10.352;2023-09-19T09:18:33;25.90;78.90
25170;DHT22;13129;48.012;10.352;2023-09-19T09:20:59;25.10;80.80
25170;DHT22;13129;48.012;10.352;2023-09-19T09:23:26;24.70;82.50
25170;DHT22;13129;48.012;10.352;2023-09-19T09:25:56;24.60;83.20
25170;DHT22;13129;48.012;10.352;2023-09-19T09:28:27;25.20;80.80
25170;DHT22;13129;48.012;10.352;2023-09-19T09:30:54;25.10;81.40
25170;DHT22;13129;48.012;10.352;2023-09-19T09:33:20;24.60;82.00
25170;DHT22;13129;48.012;10.352;2023-09-19T09:35:57;24.40;82.90
25170;DHT22;13129;48.012;10.352;2023-09-19T09:38:30;24.00;83.40
25170;DHT22;13129;48.012;10.352;2023-09-19T09:40:59;23.90;84.90
25170;DHT22;13129;48.012;10.352;2023-09-19T09:43:34;24.60;85.20
25170;DHT22;13129;48.012;10.352;2023-09-19T09:48:55;24.30;82.80
25170;DHT22;13129;48.012;10.352;2023-09-19T09:51:50;24.10;85.50
25170;DHT22;13129;48.012;10.352;2023-09-19T09:54:26;23.90;85.60
25170;DHT22;13129;48.012;10.352;2023-09-19T09:57:10;23.70;85.00
25170;DHT22;13129;48.012;10.352;2023-09-19T09:59:55;23.70;86.80
25170;DHT22;13129;48.012;10.352;2023-09-19T10:02:35;23.60;86.70
25170;DHT22;13129;48.012;10.352;2023-09-19T10:05:15;24.70;87.00
25170;DHT22;13129;48.012;10.352;2023-09-19T10:07:44;24.80;83.50
25170;DHT22;13129;48.012;10.352;2023-09-19T10:10:32;24.10;85.00
25170;DHT22;13129;48.012;10.352;2023-09-19T10:13:20;23.30;87.00
25170;DHT22;13129;48.012;10.352;2023-09-19T10:15:51;22.80;89.30
25170;DHT22;13129;48.012;10.352;2023-09-19T10:18:21;23.90;89.20
25170;DHT22;13129;48.012;10.352;2023-09-19T10:20:47;25.40;83.40
25170;DHT22;13129;48.012;10.352;2023-09-19T10:23:17;25.30;82.90
25170;DHT22;13129;48.012;10.352;2023-09-19T10:25:48;25.90;80.90
25170;DHT22;13129;48.012;10.352;2023-09-19T10:28:16;27.80;79.40
25170;DHT22;13129;48.012;10.352;2023-09-19T10:30:46;29.90;75.40
25170;DHT22;13129;48.012;10.352;2023-09-19T10:33:14;31.80;71.60
25170;DHT22;13129;48.012;10.352;2023-09-19T10:35:46;33.10;66.70
25170;DHT22;13129;48.012;10.352;2023-09-19T10:38:18;33.80;63.30
25170;DHT22;13129;48.012;10.352;2023-09-19T10:40:44;34.50;60.30
25170;DHT22;13129;48.012;10.352;2023-09-19T10:43:16;34.70;59.50
25170;DHT22;13129;48.012;10.352;2023-09-19T10:45:47;35.50;58.40
25170;DHT22;13129;48.012;10.352;2023-09-19T10:48:18;35.00;56.70
25170;DHT22;13129;48.012;10.352;2023-09-19T10:56:21;34.30;58.00
25170;DHT22;13129;48.012;10.352;2023-09-19T10:58:48;34.30;57.90
25170;DHT22;13129;48.012;10.352;2023-09-19T11:01:14;33.60;58.40
25170;DHT22;13129;48.012;10.352;2023-09-19T11:03:41;32.50;59.40
25170;DHT22;13129;48.012;10.352;2023-09-19T11:06:17;30.80;60.30
25170;DHT22;13129;48.012;10.352;2023-09-19T11:09:10;29.60;62.10
25170;DHT22;13129;48.012;10.352;2023-09-19T11:11:48;28.60;64.30
25170;DHT22;13129;48.012;10.352;2023-09-19T11:30:45;25.90;75.70
25170;DHT22;13129;48.012;10.352;2023-09-19T11:33:43;26.00;75.50
25170;DHT22;13129;48.012;10.352;2023-09-19T11:36:16;25.80;75.50
25170;DHT22;13129;48.012;10.352;2023-09-19T11:46:33;24.60;78.30
25170;DHT22;13129;48.012;10.352;2023-09-19T11:49:09;24.70;77.80
25170;DHT22;13129;48.012;10.352;2023-09-19T11:51:43;25.00;78.30
25170;DHT22;13129;48.012;10.352;2023-09-19T11:54:13;25.00;78.00
25170;DHT22;13129;48.012;10.352;2023-09-19T11:56:52;25.00;77.90
25170;DHT22;13129;48.012;10.352;2023-09-19T11:59:25;24.80;79.10
25170;DHT22;13129;48.012;10.352;2023-09-19T12:01:56;24.50;78.30
25170;DHT22;13129;48.012;10.352;2023-09-19T12:04:37;24.40;78.20
25170;DHT22;13129;48.012;10.352;2023-09-19T12:07:10;24.20;79.60
25170;DHT22;13129;48.012;10.352;2023-09-19T12:09:47;24.20;79.90
25170;DHT22;13129;48.012;10.352;2023-09-19T12:12:23;24.10;79.10
25170;DHT22;13129;48.012;10.352;2023-09-19T12:14:49;23.90;79.30
25170;DHT22;13129;48.012;10.352;2023-09-19T12:17:16;23.90;80.20
25170;DHT22;13129;48.012;10.352;2023-09-19T12:19:51;23.70;81.10
25170;DHT22;13129;48.012;10.352;2023-09-19T12:22:17;23.70;81.40
25170;DHT22;13129;48.012;10.352;2023-09-19T12:24:46;23.60;81.30
25170;DHT22;13129;48.012;10.352;2023-09-19T12:27:12;23.50;81.90
25170;DHT22;13129;48.012;10.352;2023-09-19T12:29:46;23.60;82.80
25170;DHT22;13129;48.012;10.352;2023-09-19T12:32:14;23.60;83.10
25170;DHT22;13129;48.012;10.352;2023-09-19T12:34:42;23.50;82.60
25170;DHT22;13129;48.012;10.352;2023-09-19T12:37:12;23.40;82.30
25170;DHT22;13129;48.012;10.352;2023-09-19T12:39:45;23.40;84.40
25170;DHT22;13129;48.012;10.352;2023-09-19T12:42:19;23.30;83.50
25170;DHT22;13129;48.012;10.352;2023-09-19T12:44:46;23.30;84.10
25170;DHT22;13129;48.012;10.352;2023-09-19T12:47:17;23.30;83.40
25170;DHT22;13129;48.012;10.352;2023-09-19T12:52:53;23.00;83.60
25170;DHT22;13129;48.012;10.352;2023-09-19T12:55:33;22.80;83.30
25170;DHT22;13129;48.012;10.352;2023-09-19T12:58:11;22.70;84.10
25170;DHT22;13129;48.012;10.352;2023-09-19T13:00:42;22.70;84.10
25170;DHT22;13129;48.012;10.352;2023-09-19T13:03:28;22.70;84.40
25170;DHT22;13129;48.012;10.352;2023-09-19T13:06:01;22.60;84.20
25170;DHT22;13129;48.012;10.352;2023-09-19T13:09:07;22.50;84.40
25170;DHT22;13129;48.012;10.352;2023-09-19T13:11:37;22.40;84.70
25170;DHT22;13129;48.012;10.352;2023-09-19T13:14:26;22.40;85.30
25170;DHT22;13129;48.012;10.352;2023-09-19T13:17:05;22.30;86.20
25170;DHT22;13129;48.012;10.352;2023-09-19T13:19:59;22.30;86.80
25170;DHT22;13129;48.012;10.352;2023-09-19T13:22:43;22.20;86.90
25170;DHT22;13129;48.012;10.352;2023-09-19T13:25:19;22.20;87.60
25170;DHT22;13129;48.012;10.352;2023-09-19T13:27:53;22.10;87.80
25170;DHT22;13129;48.012;10.352;2023-09-19T13:30:20;22.20;87.40
25170;DHT22;13129;48.012;10.352;2023-09-19T13:32:47;22.20;87.20
25170;DHT22;13129;48.012;10.352;2023-09-19T13:35:14;22.20;86.70
25170;DHT22;13129;48.012;10.352;2023-09-19T13:37:40;22.20;86.60
25170;DHT22;13129;48.012;10.352;2023-09-19T13:40:10;22.30;87.70
25170;DHT22;13129;48.012;10.352;2023-09-19T13:42:37;22.20;87.30
25170;DHT22;13129;48.012;10.352;2023-09-19T13:45:03;22.00;87.80
25170;DHT22;13129;48.012;10.352;2023-09-19T13:47:33;21.60;87.10
25170;DHT22;13129;48.012;10.352;2023-09-19T13:49:59;21.60;88.30
25170;DHT22;13129;48.012;10.352;2023-09-19T13:52:26;21.70;88.20
25170;DHT22;13129;48.012;10.352;2023-09-19T13:54:54;21.80;88.40
25170;DHT22;13129;48.012;10.352;2023-09-19T13:57:22;21.70;88.60
25170;DHT22;13129;48.012;10.352;2023-09-19T13:59:48;21.40;89.40
25170;DHT22;13129;48.012;10.352;2023-09-19T14:02:14;21.40;90.20
25170;DHT22;13129;48.012;10.352;2023-09-19T14:04:40;21.40;90.10
25170;DHT22;13129;48.012;10.352;2023-09-19T14:07:06;21.30;90.20
25170;DHT22;13129;48.012;10.352;2023-09-19T14:09:32;21.20;90.10
25170;DHT22;13129;48.012;10.352;2023-09-19T14:11:59;21.20;90.20
25170;DHT22;13129;48.012;10.352;2023-09-19T14:14:24;21.20;90.40
25170;DHT22;13129;48.012;10.352;2023-09-19T14:16:50;21.40;90.20
25170;DHT22;13129;48.012;10.352;2023-09-19T14:19:17;21.40;90.40
25170;DHT22;13129;48.012;10.352;2023-09-19T14:21:43;21.40;90.30
25170;DHT22;13129;48.012;10.352;2023-09-19T14:24:09;21.30;90.30
25170;DHT22;13129;48.012;10.352;2023-09-19T14:26:35;21.40;90.50
25170;DHT22;13129;48.012;10.352;2023-09-19T14:29:01;21.60;90.50
25170;DHT22;13129;48.012;10.352;2023-09-19T14:31:27;21.60;90.10
25170;DHT22;13129;48.012;10.352;2023-09-19T14:33:54;21.50;89.80
25170;DHT22;13129;48.012;10.352;2023-09-19T14:36:21;21.50;90.10
25170;DHT22;13129;48.012;10.352;2023-09-19T14:38:47;21.30;90.20
25170;DHT22;13129;48.012;10.352;2023-09-19T14:41:12;21.00;90.40
25170;DHT22;13129;48.012;10.352;2023-09-19T14:43:38;20.70;90.80
25170;DHT22;13129;48.012;10.352;2023-09-19T14:46:07;20.30;91.50
25170;DHT22;13129;48.012;10.352;2023-09-19T14:48:33;20.10;92.10
25170;DHT22;13129;48.012;10.352;2023-09-19T14:51:03;20.10;92.90
25170;DHT22;13129;48.012;10.352;2023-09-19T14:53:29;20.00;93.30
25170;DHT22;13129;48.012;10.352;2023-09-19T14:55:55;20.00;93.10
25170;DHT22;13129;48.012;10.352;2023-09-19T14:58:21;20.00;93.10
25170;DHT22;13129;48.012;10.352;2023-09-19T15:00:47;19.90;93.40
25170;DHT22;13129;48.012;10.352;2023-09-19T15:03:12;19.90;93.70
25170;DHT22;13129;48.012;10.352;2023-09-19T15:05:40;19.90;93.80
25170;DHT22;13129;48.012;10.352;2023-09-19T15:08:05;19.80;94.10
25170;DHT22;13129;48.012;10.352;2023-09-19T15:10:31;19.80;94.50
25170;DHT22;13129;48.012;10.352;2023-09-19T15:12:57;19.70;94.90
25170;DHT22;13129;48.012;10.352;2023-09-19T15:15:22;19.70;94.90
25170;DHT22;13129;48.012;10.352;2023-09-19T15:17:48;19.70;94.90
25170;DHT22;13129;48.012;10.352;2023-09-19T15:20:14;19.70;95.00
25170;DHT22;13129;48.012;10.352;2023-09-19T15:22:40;19.70;95.20
25170;DHT22;13129;48.012;10.352;2023-09-19T15:25:06;19.70;95.10
25170;DHT22;13129;48.012;10.352;2023-09-19T15:27:31;19.70;94.90
25170;DHT22;13129;48.012;10.352;2023-09-19T15:29:59;19.60;95.60
25170;DHT22;13129;48.012;10.352;2023-09-19T15:32:26;19.50;95.80
25170;DHT22;13129;48.012;10.352;2023-09-19T15:34:51;19.40;95.80
25170;DHT22;13129;48.012;10.352;2023-09-19T15:37:17;19.40;96.00
25170;DHT22;13129;48.012;10.352;2023-09-19T15:39:42;19.40;96.10
25170;DHT22;13129;48.012;10.352;2023-09-19T15:42:10;19.30;96.20
25170;DHT22;13129;48.012;10.352;2023-09-19T15:44:36;19.40;96.30
25170;DHT22;13129;48.012;10.352;2023-09-19T15:47:05;19.30;96.70
25170;DHT22;13129;48.012;10.352;2023-09-19T15:49:31;19.30;96.50
25170;DHT22;13129;48.012;10.352;2023-09-19T15:51:57;19.30;96.70
25170;DHT22;13129;48.012;10.352;2023-09-19T15:54:25;19.20;96.90
25170;DHT22;13129;48.012;10.352;2023-09-19T15:56:51;19.20;97.20
25170;DHT22;13129;48.012;10.352;2023-09-19T15:59:17;19.20;97.60
25170;DHT22;13129;48.012;10.352;2023-09-19T16:01:43;19.10;97.40
25170;DHT22;13129;48.012;10.352;2023-09-19T16:04:10;19.10;97.50
25170;DHT22;13129;48.012;10.352;2023-09-19T16:06:36;19.00;97.50
25170;DHT22;13129;48.012;10.352;2023-09-19T16:09:03;19.00;97.70
25170;DHT22;13129;48.012;10.352;2023-09-19T16:11:33;18.90;98.10
25170;DHT22;13129;48.012;10.352;2023-09-19T16:13:58;18.80;98.60
25170;DHT22;13129;48.012;10.352;2023-09-19T16:16:25;18.80;99.00
25170;DHT22;13129;48.012;10.352;2023-09-19T16:18:56;18.70;99.40
25170;DHT22;13129;48.012;10.352;2023-09-19T16:21:28;18.70;99.50
25170;DHT22;13129;48.012;10.352;2023-09-19T16:23:57;18.60;99.60
25170;DHT22;13129;48.012;10.352;2023-09-19T16:26:24;18.60;99.90
25170;DHT22;13129;48.012;10.352;2023-09-19T16:28:51;18.50;99.90
25170;DHT22;13129;48.012;10.352;2023-09-19T16:31:17;18.50;99.90
25170;DHT22;13129;48.012;10.352;2023-09-19T16:33:45;18.40;99.90
25170;DHT22;13129;48.012;10.352;2023-09-19T16:36:12;18.30;99.90
25170;DHT22;13129;48.012;10.352;2023-09-19T16:38:39;18.30;99.90
25170;DHT22;13129;48.012;10.352;2023-09-19T16:41:05;18.20;99.90
25170;DHT22;13129;48.012;10.352;2023-09-19T16:43:32;18.10;99.90
25170;DHT22;13129;48.012;10.352;2023-09-19T16:46:00;18.10;99.90
25170;DHT22;13129;48.012;10.352;2023-09-19T16:48:27;18.00;99.90
25170;DHT22;13129;48.012;10.352;2023-09-19T16:50:53;17.90;99.90
25170;DHT22;13129;48.012;10.352;2023-09-19T16:53:20;17.90;99.90
25170;DHT22;13129;48.012;10.352;2023-09-19T16:55:47;17.80;99.90
25170;DHT22;13129;48.012;10.352;2023-09-19T16:58:13;17.80;99.90
25170;DHT22;13129;48.012;10.352;2023-09-19T17:00:39;17.70;99.90
25170;DHT22;13129;48.012;10.352;2023-09-19T17:03:05;17.60;99.90
25170;DHT22;13129;48.012;10.352;2023-09-19T17:05:32;17.50;99.90
25170;DHT22;13129;48.012;10.352;2023-09-19T17:07:58;17.50;99.90
25170;DHT22;13129;48.012;10.352;2023-09-19T17:10:30;17.30;99.90
25170;DHT22;13129;48.012;10.352;2023-09-19T17:12:58;17.30;99.90
25170;DHT22;13129;48.012;10.352;2023-09-19T17:15:23;17.20;99.90
25170;DHT22;13129;48.012;10.352;2023-09-19T17:17:50;17.20;99.90
25170;DHT22;13129;48.012;10.352;2023-09-19T17:20:17;17.00;99.90
25170;DHT22;13129;48.012;10.352;2023-09-19T17:22:43;17.00;99.90
25170;DHT22;13129;48.012;10.352;2023-09-19T17:25:09;16.90;99.90
25170;DHT22;13129;48.012;10.352;2023-09-19T17:27:35;16.80;99.90
25170;DHT22;13129;48.012;10.352;2023-09-19T17:30:01;16.80;99.90
25170;DHT22;13129;48.012;10.352;2023-09-19T17:32:26;16.70;99.90
25170;DHT22;13129;48.012;10.352;2023-09-19T17:34:52;16.70;99.90
25170;DHT22;13129;48.012;10.352;2023-09-19T17:37:18;16.60;99.90
25170;DHT22;13129;48.012;10.352;2023-09-19T17:39:44;16.60;99.90
25170;DHT22;13129;48.012;10.352;2023-09-19T17:42:10;16.40;99.90
25170;DHT22;13129;48.012;10.352;2023-09-19T17:44:38;16.40;99.90
25170;DHT22;13129;48.012;10.352;2023-09-19T17:47:04;16.20;99.90
25170;DHT22;13129;48.012;10.352;2023-09-19T17:49:30;16.20;99.90
25170;DHT22;13129;48.012;10.352;2023-09-19T17:51:55;16.10;99.90
25170;DHT22;13129;48.012;10.352;2023-09-19T17:54:21;16.10;99.90
25170;DHT22;13129;48.012;10.352;2023-09-19T17:56:48;16.00;99.90
25170;DHT22;13129;48.012;10.352;2023-09-19T17:59:14;15.90;99.90
25170;DHT22;13129;48.012;10.352;2023-09-19T18:01:40;15.90;99.90
25170;DHT22;13129;48.012;10.352;2023-09-19T18:04:09;15.90;99.90
